Good Hope, Mississippi
Current Conditions -  °F | °C
As of 9:53 AM on Friday 24 Oct 2014 (Local Time) from KHBG Reporting Station
Clear Clear  
Wind Chill: 61°   Ceiling: Unl
Heat Index: 61°   Visibility: 10mi
Dew Point: 50°   Wind: 7mph
Humidity: 67%   Direction: 10°N
Pressure: 30.14"   Gusts: NA
Location:  31.3326°N, 88.8854°W
Report Text: KHBG 241453Z AUTO 01006KT 10SM CLR 16/10 A3014 RMK AO2 SLP205 T01610100 51009
Loading
Personal Weather Stations






























Interactive Weather Map
Tropical Storm Tracking
New forecast layout! Learn more

10-Day Weather Forecast

Advertisements
Track Severe Weather on mobile